Historical Weather Data

Soule Park Golf Course
1033 East Ojai Ave
Ojai, CA 93023
Date ET
(Inches)
Rain
(Inches)
Temp °F
Humidity
Avg
Wind MPH
Avg
Solar Wm2
Avg
High Ave Low
9/1/17 0.24 0.00 107.2 88.0 69.1 37 2.6 276
9/2/17 0.24 0.00 108.0 89.6 74.3 37 2.6 271
9/3/17 0.17 0.00 101.8 83.8 72.3 52 2.7 173
9/4/17 0.15 0.03 83.3 74.5 67.7 78 2.6 216
9/5/17 0.18 0.00 92.8 74.2 62.9 73 2.2 254
9/6/17 0.20 0.00 93.1 73.7 59.4 65 2.2 272
9/7/17 0.20 0.00 94.4 73.6 56.2 62 2.3 265
9/8/17 0.19 0.00 86.3 70.2 57.4 70 2.3 271
9/9/17 0.18 0.00 88.6 68.2 51.4 70 2.3 266
9/10/17 0.19 0.00 98.8 75.5 56.3 56 2.3 237
9/11/17 0.18 0.00 94.6 78.5 66.9 58 2.6 232
9/12/17 0.19 0.00 88.9 73.1 61.1 68 2.4 264
9/13/17 0.14 0.00 80.0 66.0 58.4 76 2.6 221
9/14/17 0.05 0.00 69.3 63.5 57.1 80 2.1 66
9/15/17 0.17 0.00 77.1 65.6 54.2 75 2.2 262
9/16/17 0.16 0.00 79.0 64.4 51.3 75 2.3 256
9/17/17 0.08 0.00 76.1 62.8 52.8 81 1.5 135
9/18/17 0.16 0.00 79.9 64.9 51.1 77 2.1 254
9/19/17 0.09 0.00 77.0 63.6 55.8 82 1.7 152
9/20/17 0.09 0.00 74.7 62.6 50.5 79 1.8 136
9/21/17 0.14 0.00 75.0 63.7 51.9 70 2.5 227
9/22/17 0.15 0.00 72.6 58.9 43.7 61 2.5 252
9/23/17 0.16 0.00 78.1 60.4 43.2 55 2.5 251
9/24/17 0.19 0.00 84.4 65.1 46.7 40 2.6 255
9/25/17 0.20 0.00 87.9 68.0 49.1 33 3.1 255
9/26/17 0.19 0.00 90.4 69.2 50.3 35 2.7 250
9/27/17 0.19 0.00 93.5 70.5 50.8 38 2.5 251
9/28/17 0.20 0.00 95.3 72.7 52.3 37 2.6 249
9/29/17 0.19 0.00 93.1 72.6 55.4 36 2.6 244
9/30/17 0.16 0.00 84.5 67.0 51.8 54 2.1 234